George West, Texas
Current Conditions -  °F | °C
As of 10:55 AM on Monday 22 Dec 2014 (Local Time) from KBEA Reporting Station
Overcast Overcast  
Wind Chill: 64°   Ceiling: 1300
Heat Index: 64°   Visibility: 10mi
Dew Point: 60°   Wind: 8mph
Humidity: 84%   Direction: 230°SW
Pressure: 29.79"   Gusts: NA
Location:  28.33°N, 98.12°W
Report Text: KBEA 221655Z AUTO 23007KT 10SM OVC013 18/15 A2979 RMK AO2 T01800153
Loading
Personal Weather Stations






























Interactive Weather Map New forecast layout! Learn more

10-Day Weather Forecast

Advertisements
Track Severe Weather on mobile